Aviation Digital Data Service (ADDS)

Output produced by METARs form (0419 UTC 21 August 2014)
found at http://www.aviationweather.gov/adds/metars/
 
KCRQ 210353Z AUTO 00000KT 10SM BKN100 21/16 A2991 RMK AO2 SLP126 T02060161 TSNO
KCRQ 210253Z AUTO 27003KT 10SM SCT110 21/16 A2990 RMK AO2 SLP121 T02110161 53004 TSNO
KCRQ 210153Z AUTO 25006KT 10SM FEW100 22/16 A2988 RMK AO2 SLP116 T02170161 TSNO
KCRQ 210053Z AUTO 28004KT 10SM FEW110 22/17 A2988 RMK AO2 SLP116 T02220167 TSNO
KCRQ 202325Z 2100/2124 25007KT P6SM SCT018 BKN150 
     FM210600 VRB04KT P6SM OVC015 
     FM211600 VRB04KT P6SM SCT018 SCT100 
     FM211800 25008KT P6SM SCT100